ANZ547 NZAA-NZCH
Flight info
| Callsign | ANZ547 |
|---|---|
| Flight time | 1h 6m |
| Altitude | 34000 |
| Route | IGBAT H384 NP H252 NS Y288 IPRAK |
| Aircraft | A320/M-SDE3FGHIRWY/LB1 |
Departure
| Time | 2026-05-07 03:19 |
|---|---|
| Airport | Auckland International Airport (NZAA) |
Arrival
| Time | 2026-05-07 04:25 |
|---|---|
| Airport | Christchurch International Airport (NZCH) |
| Time | Latitude | Longitude | Altitude | Speed | Heading |
|---|---|---|---|---|---|
| 2026-05-07 02:33 | -37.00715 | 174.79098 | 26 ft | 0 kts | 340° |
| 2026-05-07 03:08 | -37.00720 | 174.79101 | 25 ft | 4 kts | 340° |
| 2026-05-07 03:08 | -37.00745 | 174.79112 | 28 ft | 4 kts | 334° |
| 2026-05-07 03:08 | -37.00767 | 174.79130 | 25 ft | 4 kts | 309° |
| 2026-05-07 03:08 | -37.00776 | 174.79156 | 25 ft | 3 kts | 255° |
| 2026-05-07 03:09 | -37.00774 | 174.79166 | 25 ft | 0 kts | 251° |
| 2026-05-07 03:13 | -37.00774 | 174.79164 | 25 ft | 2 kts | 251° |
| 2026-05-07 03:13 | -37.00781 | 174.79140 | 25 ft | 6 kts | 251° |
| 2026-05-07 03:13 | -37.00830 | 174.79111 | 26 ft | 10 kts | 172° |
| 2026-05-07 03:13 | -37.00889 | 174.79080 | 25 ft | 11 kts | 250° |
| 2026-05-07 03:14 | -37.00913 | 174.78981 | 27 ft | 13 kts | 251° |
| 2026-05-07 03:14 | -37.00946 | 174.78868 | 28 ft | 15 kts | 251° |
| 2026-05-07 03:14 | -37.01024 | 174.78586 | 29 ft | 19 kts | 251° |
| 2026-05-07 03:15 | -37.01069 | 174.78422 | 29 ft | 21 kts | 251° |
| 2026-05-07 03:15 | -37.01118 | 174.78241 | 27 ft | 23 kts | 251° |
| 2026-05-07 03:15 | -37.01172 | 174.78044 | 28 ft | 25 kts | 251° |
| 2026-05-07 03:15 | -37.01231 | 174.77830 | 27 ft | 27 kts | 251° |
| 2026-05-07 03:16 | -37.01295 | 174.77601 | 26 ft | 29 kts | 250° |
| 2026-05-07 03:16 | -37.01363 | 174.77357 | 26 ft | 31 kts | 251° |
| 2026-05-07 03:16 | -37.01420 | 174.77155 | 26 ft | 16 kts | 247° |
| 2026-05-07 03:16 | -37.01498 | 174.77101 | 31 ft | 11 kts | 191° |
| 2026-05-07 03:17 | -37.01584 | 174.77086 | 29 ft | 14 kts | 170° |
| 2026-05-07 03:17 | -37.01606 | 174.77176 | 26 ft | 11 kts | 65° |
| 2026-05-07 03:17 | -37.01594 | 174.77217 | 26 ft | 0 kts | 71° |
| 2026-05-07 03:17 | -37.01594 | 174.77218 | 29 ft | 2 kts | 71° |
| 2026-05-07 03:18 | -37.01536 | 174.77428 | 28 ft | 59 kts | 70° |
| 2026-05-07 03:18 | -37.01331 | 174.78168 | 26 ft | 117 kts | 71° |
| 2026-05-07 03:18 | -37.01012 | 174.79313 | 35 ft | 159 kts | 69° |
| 2026-05-07 03:18 | -37.00683 | 174.80559 | 488 ft | 164 kts | 70° |
| 2026-05-07 03:19 | -37.00319 | 174.81919 | 1161 ft | 164 kts | 67° |
| 2026-05-07 03:19 | -36.99944 | 174.83266 | 1824 ft | 167 kts | 67° |
| 2026-05-07 03:19 | -36.99679 | 174.84206 | 2064 ft | 180 kts | 67° |
| 2026-05-07 03:19 | -36.99231 | 174.85776 | 2352 ft | 202 kts | 67° |
| 2026-05-07 03:20 | -36.98590 | 174.88053 | 3119 ft | 210 kts | 66° |
| 2026-05-07 03:20 | -36.98272 | 174.89204 | 3599 ft | 214 kts | 69° |
| 2026-05-07 03:20 | -36.98182 | 174.91083 | 4329 ft | 227 kts | 104° |
| 2026-05-07 03:20 | -36.99102 | 174.92700 | 5053 ft | 237 kts | 144° |
| 2026-05-07 03:21 | -37.00586 | 174.93635 | 5799 ft | 242 kts | 160° |
| 2026-05-07 03:21 | -37.02772 | 174.93873 | 6726 ft | 243 kts | 199° |
| 2026-05-07 03:21 | -37.04249 | 174.92887 | 7415 ft | 241 kts | 225° |
| 2026-05-07 03:21 | -37.05001 | 174.91833 | 7897 ft | 240 kts | 242° |
| 2026-05-07 03:22 | -37.05660 | 174.89924 | 8547 ft | 244 kts | 255° |
| 2026-05-07 03:22 | -37.06242 | 174.87816 | 8861 ft | 268 kts | 255° |
| 2026-05-07 03:22 | -37.06859 | 174.85557 | 9313 ft | 284 kts | 255° |
| 2026-05-07 03:22 | -37.07508 | 174.83196 | 10037 ft | 289 kts | 254° |
| 2026-05-07 03:23 | -37.08183 | 174.80748 | 10415 ft | 308 kts | 254° |
| 2026-05-07 03:23 | -37.08907 | 174.78113 | 10594 ft | 332 kts | 254° |
| 2026-05-07 03:23 | -37.09706 | 174.75328 | 11024 ft | 346 kts | 248° |
| 2026-05-07 03:23 | -37.11051 | 174.72793 | 11663 ft | 356 kts | 228° |
| 2026-05-07 03:24 | -37.13079 | 174.70964 | 12340 ft | 366 kts | 207° |
| 2026-05-07 03:24 | -37.15556 | 174.70147 | 12993 ft | 373 kts | 189° |
| 2026-05-07 03:24 | -37.18143 | 174.69753 | 13668 ft | 375 kts | 189° |
| 2026-05-07 03:24 | -37.20744 | 174.69376 | 14326 ft | 378 kts | 189° |
| 2026-05-07 03:25 | -37.23366 | 174.68999 | 14968 ft | 380 kts | 189° |
| 2026-05-07 03:25 | -37.26001 | 174.68614 | 15582 ft | 382 kts | 189° |
| 2026-05-07 03:25 | -37.28648 | 174.68216 | 16166 ft | 385 kts | 189° |
| 2026-05-07 03:25 | -37.31312 | 174.67810 | 16739 ft | 387 kts | 189° |
| 2026-05-07 03:26 | -37.33993 | 174.67402 | 17303 ft | 389 kts | 190° |
| 2026-05-07 03:26 | -37.36695 | 174.66993 | 17864 ft | 392 kts | 190° |
| 2026-05-07 03:26 | -37.39413 | 174.66579 | 18420 ft | 395 kts | 190° |
| 2026-05-07 03:26 | -37.42154 | 174.66161 | 18961 ft | 398 kts | 190° |
| 2026-05-07 03:27 | -37.44881 | 174.65745 | 19475 ft | 401 kts | 190° |
| 2026-05-07 03:27 | -37.47669 | 174.65319 | 19970 ft | 405 kts | 189° |
| 2026-05-07 03:27 | -37.50477 | 174.64890 | 20459 ft | 409 kts | 189° |
| 2026-05-07 03:27 | -37.53314 | 174.64453 | 20941 ft | 412 kts | 189° |
| 2026-05-07 03:28 | -37.56175 | 174.64009 | 21390 ft | 415 kts | 190° |
| 2026-05-07 03:28 | -37.59011 | 174.63300 | 21814 ft | 417 kts | 196° |
| 2026-05-07 03:28 | -37.61837 | 174.62430 | 22229 ft | 420 kts | 196° |
| 2026-05-07 03:28 | -37.64686 | 174.61539 | 22648 ft | 423 kts | 197° |
| 2026-05-07 03:29 | -37.67554 | 174.60637 | 23065 ft | 426 kts | 196° |
| 2026-05-07 03:29 | -37.70446 | 174.59734 | 23461 ft | 429 kts | 196° |
| 2026-05-07 03:29 | -37.73354 | 174.58827 | 23859 ft | 433 kts | 196° |
| 2026-05-07 03:29 | -37.76287 | 174.57912 | 24253 ft | 435 kts | 196° |
| 2026-05-07 03:30 | -37.79236 | 174.56992 | 24634 ft | 438 kts | 196° |
| 2026-05-07 03:30 | -37.82201 | 174.56059 | 25028 ft | 440 kts | 196° |
| 2026-05-07 03:30 | -37.85181 | 174.55123 | 25417 ft | 442 kts | 196° |
| 2026-05-07 03:30 | -37.88175 | 174.54186 | 25802 ft | 444 kts | 196° |
| 2026-05-07 03:31 | -37.91183 | 174.53245 | 26184 ft | 446 kts | 196° |
| 2026-05-07 03:31 | -37.94202 | 174.52300 | 26541 ft | 448 kts | 196° |
| 2026-05-07 03:31 | -37.97236 | 174.51349 | 26908 ft | 450 kts | 196° |
| 2026-05-07 03:31 | -38.00282 | 174.50394 | 27264 ft | 452 kts | 196° |
| 2026-05-07 03:32 | -38.03340 | 174.49431 | 27626 ft | 454 kts | 197° |
| 2026-05-07 03:32 | -38.06413 | 174.48462 | 27971 ft | 456 kts | 197° |
| 2026-05-07 03:32 | -38.09500 | 174.47492 | 28314 ft | 458 kts | 197° |
| 2026-05-07 03:32 | -38.12597 | 174.46520 | 28646 ft | 460 kts | 197° |
| 2026-05-07 03:33 | -38.15705 | 174.45539 | 28984 ft | 461 kts | 197° |
| 2026-05-07 03:33 | -38.18816 | 174.44556 | 29444 ft | 459 kts | 197° |
| 2026-05-07 03:33 | -38.21907 | 174.43578 | 29899 ft | 457 kts | 197° |
| 2026-05-07 03:33 | -38.24991 | 174.42603 | 30355 ft | 456 kts | 197° |
| 2026-05-07 03:34 | -38.28020 | 174.41644 | 30803 ft | 454 kts | 197° |
| 2026-05-07 03:34 | -38.31077 | 174.40678 | 31251 ft | 452 kts | 197° |
| 2026-05-07 03:34 | -38.34124 | 174.39719 | 31701 ft | 450 kts | 197° |
| 2026-05-07 03:34 | -38.37162 | 174.38759 | 32151 ft | 448 kts | 197° |
| 2026-05-07 03:35 | -38.40180 | 174.37804 | 32597 ft | 446 kts | 197° |
| 2026-05-07 03:35 | -38.43183 | 174.36854 | 33037 ft | 444 kts | 197° |
| 2026-05-07 03:35 | -38.46174 | 174.35903 | 33477 ft | 442 kts | 197° |
| 2026-05-07 03:35 | -38.49150 | 174.34951 | 33917 ft | 440 kts | 198° |
| 2026-05-07 03:36 | -38.52115 | 174.34000 | 34137 ft | 439 kts | 197° |
| 2026-05-07 03:36 | -38.58097 | 174.32086 | 34173 ft | 446 kts | 197° |
| 2026-05-07 03:37 | -38.64129 | 174.30157 | 34174 ft | 447 kts | 197° |
| 2026-05-07 03:37 | -38.70168 | 174.28234 | 34174 ft | 447 kts | 197° |
| 2026-05-07 03:38 | -38.76162 | 174.26316 | 34174 ft | 447 kts | 198° |
| 2026-05-07 03:38 | -38.82193 | 174.24374 | 34175 ft | 447 kts | 198° |
| 2026-05-07 03:39 | -38.88229 | 174.22424 | 34173 ft | 447 kts | 198° |
| 2026-05-07 03:39 | -38.94264 | 174.20483 | 34171 ft | 447 kts | 198° |
| 2026-05-07 03:40 | -39.00308 | 174.18532 | 34171 ft | 447 kts | 198° |
| 2026-05-07 03:40 | -39.06272 | 174.16324 | 34172 ft | 446 kts | 201° |
| 2026-05-07 03:41 | -39.12170 | 174.13829 | 34173 ft | 446 kts | 202° |
| 2026-05-07 03:41 | -39.18055 | 174.11316 | 34171 ft | 446 kts | 201° |
| 2026-05-07 03:42 | -39.23972 | 174.08873 | 34170 ft | 446 kts | 201° |
| 2026-05-07 03:42 | -39.29856 | 174.06485 | 34170 ft | 446 kts | 201° |
| 2026-05-07 03:43 | -39.35786 | 174.04067 | 34171 ft | 447 kts | 201° |
| 2026-05-07 03:43 | -39.41711 | 174.01629 | 34172 ft | 446 kts | 201° |
| 2026-05-07 03:44 | -39.47627 | 173.99176 | 34171 ft | 446 kts | 201° |
| 2026-05-07 03:44 | -39.53540 | 173.96732 | 34166 ft | 446 kts | 201° |
| 2026-05-07 03:45 | -39.59456 | 173.94287 | 34163 ft | 446 kts | 201° |
| 2026-05-07 03:45 | -39.65371 | 173.91839 | 34161 ft | 446 kts | 201° |
| 2026-05-07 03:46 | -39.71240 | 173.89403 | 34159 ft | 445 kts | 201° |
| 2026-05-07 03:46 | -39.77142 | 173.86947 | 34156 ft | 446 kts | 201° |
| 2026-05-07 03:47 | -39.83045 | 173.84480 | 34155 ft | 445 kts | 201° |
| 2026-05-07 03:47 | -39.88944 | 173.82011 | 34155 ft | 446 kts | 201° |
| 2026-05-07 03:48 | -39.94850 | 173.79548 | 34153 ft | 445 kts | 201° |
| 2026-05-07 03:48 | -40.00752 | 173.77083 | 34152 ft | 445 kts | 201° |
| 2026-05-07 03:49 | -40.06641 | 173.74610 | 34147 ft | 445 kts | 202° |
| 2026-05-07 03:49 | -40.12495 | 173.72148 | 34136 ft | 445 kts | 202° |
| 2026-05-07 03:50 | -40.18386 | 173.69668 | 34110 ft | 445 kts | 202° |
| 2026-05-07 03:50 | -40.24296 | 173.67178 | 34092 ft | 446 kts | 202° |
| 2026-05-07 03:51 | -40.30205 | 173.64686 | 34093 ft | 447 kts | 202° |
| 2026-05-07 03:51 | -40.36119 | 173.62179 | 34094 ft | 447 kts | 202° |
| 2026-05-07 03:52 | -40.42046 | 173.59668 | 34097 ft | 448 kts | 202° |
| 2026-05-07 03:52 | -40.47982 | 173.57148 | 34097 ft | 448 kts | 202° |
| 2026-05-07 03:53 | -40.53919 | 173.54615 | 34095 ft | 449 kts | 202° |
| 2026-05-07 03:53 | -40.59863 | 173.52078 | 34089 ft | 450 kts | 203° |
| 2026-05-07 03:54 | -40.65824 | 173.49534 | 34088 ft | 450 kts | 203° |
| 2026-05-07 03:54 | -40.71792 | 173.46984 | 34087 ft | 451 kts | 203° |
| 2026-05-07 03:55 | -40.77764 | 173.44416 | 34080 ft | 452 kts | 203° |
| 2026-05-07 03:55 | -40.83750 | 173.41839 | 34082 ft | 453 kts | 204° |
| 2026-05-07 03:56 | -40.89742 | 173.39257 | 34075 ft | 453 kts | 204° |
| 2026-05-07 03:56 | -40.95739 | 173.36671 | 34075 ft | 453 kts | 204° |
| 2026-05-07 03:57 | -41.01747 | 173.34078 | 34072 ft | 454 kts | 204° |
| 2026-05-07 03:57 | -41.07751 | 173.31468 | 34067 ft | 455 kts | 204° |
| 2026-05-07 03:58 | -41.13766 | 173.28858 | 34065 ft | 455 kts | 204° |
| 2026-05-07 03:58 | -41.19786 | 173.26247 | 34061 ft | 456 kts | 204° |
| 2026-05-07 03:59 | -41.25817 | 173.23612 | 34059 ft | 456 kts | 204° |
| 2026-05-07 03:59 | -41.31855 | 173.20982 | 34059 ft | 457 kts | 204° |
| 2026-05-07 04:00 | -41.37937 | 173.18611 | 34053 ft | 459 kts | 202° |
| 2026-05-07 04:00 | -41.44109 | 173.16348 | 34042 ft | 460 kts | 202° |
| 2026-05-07 04:01 | -41.50267 | 173.14025 | 34031 ft | 459 kts | 202° |
| 2026-05-07 04:01 | -41.56405 | 173.11658 | 34018 ft | 459 kts | 202° |
| 2026-05-07 04:02 | -41.62548 | 173.09276 | 34013 ft | 460 kts | 202° |
| 2026-05-07 04:02 | -41.68687 | 173.06890 | 33997 ft | 460 kts | 202° |
| 2026-05-07 04:03 | -41.74838 | 173.04508 | 33994 ft | 461 kts | 202° |
| 2026-05-07 04:03 | -41.80998 | 173.02124 | 33992 ft | 461 kts | 202° |
| 2026-05-07 04:04 | -41.87146 | 172.99737 | 33981 ft | 460 kts | 202° |
| 2026-05-07 04:04 | -41.93298 | 172.97341 | 33965 ft | 460 kts | 202° |
| 2026-05-07 04:05 | -41.99470 | 172.94938 | 33971 ft | 462 kts | 202° |
| 2026-05-07 04:05 | -42.05595 | 172.92541 | 33946 ft | 461 kts | 203° |
| 2026-05-07 04:06 | -42.11741 | 172.90127 | 33723 ft | 460 kts | 204° |
| 2026-05-07 04:06 | -42.14849 | 172.88896 | 32491 ft | 472 kts | 203° |
| 2026-05-07 04:06 | -42.18046 | 172.87629 | 31290 ft | 483 kts | 202° |
| 2026-05-07 04:06 | -42.21285 | 172.86350 | 30322 ft | 488 kts | 202° |
| 2026-05-07 04:07 | -42.24536 | 172.85072 | 29559 ft | 486 kts | 202° |
| 2026-05-07 04:07 | -42.27783 | 172.83802 | 28783 ft | 485 kts | 201° |
| 2026-05-07 04:07 | -42.31016 | 172.82537 | 28076 ft | 482 kts | 201° |
| 2026-05-07 04:07 | -42.34226 | 172.81276 | 27379 ft | 479 kts | 201° |
| 2026-05-07 04:08 | -42.37418 | 172.80013 | 26669 ft | 476 kts | 201° |
| 2026-05-07 04:08 | -42.40584 | 172.78758 | 25964 ft | 472 kts | 201° |
| 2026-05-07 04:08 | -42.43723 | 172.77510 | 25277 ft | 468 kts | 201° |
| 2026-05-07 04:08 | -42.46833 | 172.76271 | 24606 ft | 465 kts | 201° |
| 2026-05-07 04:09 | -42.49930 | 172.75038 | 23901 ft | 461 kts | 200° |
| 2026-05-07 04:09 | -42.52998 | 172.73817 | 23136 ft | 459 kts | 200° |
| 2026-05-07 04:09 | -42.56050 | 172.72603 | 22568 ft | 453 kts | 201° |
| 2026-05-07 04:09 | -42.59018 | 172.71423 | 21980 ft | 448 kts | 201° |
| 2026-05-07 04:10 | -42.61990 | 172.70243 | 21423 ft | 442 kts | 201° |
| 2026-05-07 04:10 | -42.64920 | 172.69081 | 20900 ft | 436 kts | 201° |
| 2026-05-07 04:10 | -42.67814 | 172.67929 | 20363 ft | 431 kts | 201° |
| 2026-05-07 04:10 | -42.70676 | 172.66784 | 19822 ft | 427 kts | 201° |
| 2026-05-07 04:11 | -42.72594 | 172.66013 | 19464 ft | 424 kts | 201° |
| 2026-05-07 04:11 | -42.76318 | 172.64512 | 18729 ft | 420 kts | 201° |
| 2026-05-07 04:11 | -42.78204 | 172.63750 | 18352 ft | 417 kts | 201° |
| 2026-05-07 04:11 | -42.80980 | 172.62631 | 17778 ft | 415 kts | 201° |
| 2026-05-07 04:12 | -42.84624 | 172.61165 | 17042 ft | 410 kts | 201° |
| 2026-05-07 04:12 | -42.86433 | 172.60436 | 16683 ft | 408 kts | 201° |
| 2026-05-07 04:12 | -42.89138 | 172.59341 | 16126 ft | 404 kts | 202° |
| 2026-05-07 04:12 | -42.91818 | 172.58254 | 15573 ft | 400 kts | 202° |
| 2026-05-07 04:13 | -42.94476 | 172.57174 | 15020 ft | 395 kts | 202° |
| 2026-05-07 04:13 | -42.97093 | 172.56109 | 14506 ft | 390 kts | 202° |
| 2026-05-07 04:13 | -42.99671 | 172.55062 | 14150 ft | 382 kts | 202° |
| 2026-05-07 04:13 | -43.02169 | 172.54052 | 14006 ft | 367 kts | 203° |
| 2026-05-07 04:14 | -43.04563 | 172.53089 | 13432 ft | 353 kts | 203° |
| 2026-05-07 04:14 | -43.06898 | 172.52137 | 12687 ft | 347 kts | 204° |
| 2026-05-07 04:14 | -43.09201 | 172.51192 | 12073 ft | 344 kts | 204° |
| 2026-05-07 04:14 | -43.11485 | 172.50249 | 11582 ft | 342 kts | 204° |
| 2026-05-07 04:15 | -43.13766 | 172.49306 | 11091 ft | 344 kts | 204° |
| 2026-05-07 04:15 | -43.16051 | 172.48361 | 10601 ft | 342 kts | 204° |
| 2026-05-07 04:15 | -43.18279 | 172.47447 | 10485 ft | 338 kts | 203° |
| 2026-05-07 04:15 | -43.20541 | 172.46513 | 10378 ft | 339 kts | 203° |
| 2026-05-07 04:16 | -43.22785 | 172.45588 | 10225 ft | 332 kts | 202° |
| 2026-05-07 04:16 | -43.24934 | 172.44716 | 10092 ft | 311 kts | 203° |
| 2026-05-07 04:16 | -43.26948 | 172.43903 | 9863 ft | 295 kts | 203° |
| 2026-05-07 04:16 | -43.28902 | 172.43101 | 9332 ft | 292 kts | 203° |
| 2026-05-07 04:17 | -43.30827 | 172.42301 | 8835 ft | 288 kts | 202° |
| 2026-05-07 04:17 | -43.32751 | 172.41501 | 8352 ft | 288 kts | 202° |
| 2026-05-07 04:17 | -43.34687 | 172.40693 | 7861 ft | 293 kts | 202° |
| 2026-05-07 04:17 | -43.36645 | 172.39875 | 7578 ft | 291 kts | 202° |
| 2026-05-07 04:18 | -43.38566 | 172.39086 | 7304 ft | 284 kts | 202° |
| 2026-05-07 04:18 | -43.40455 | 172.38322 | 6735 ft | 284 kts | 201° |
| 2026-05-07 04:18 | -43.42367 | 172.37648 | 6201 ft | 284 kts | 199° |
| 2026-05-07 04:18 | -43.44285 | 172.37031 | 5685 ft | 283 kts | 198° |
| 2026-05-07 04:19 | -43.46205 | 172.36432 | 5153 ft | 284 kts | 198° |
| 2026-05-07 04:19 | -43.48130 | 172.35834 | 4552 ft | 285 kts | 198° |
| 2026-05-07 04:19 | -43.50029 | 172.35235 | 4224 ft | 275 kts | 197° |
| 2026-05-07 04:19 | -43.51850 | 172.34661 | 4159 ft | 254 kts | 198° |
| 2026-05-07 04:20 | -43.53535 | 172.34183 | 4126 ft | 242 kts | 188° |
| 2026-05-07 04:20 | -43.55149 | 172.34366 | 4101 ft | 230 kts | 165° |
| 2026-05-07 04:20 | -43.56572 | 172.35253 | 3845 ft | 224 kts | 143° |
| 2026-05-07 04:21 | -43.58225 | 172.38703 | 2908 ft | 205 kts | 93° |
| 2026-05-07 04:21 | -43.58253 | 172.40648 | 2463 ft | 203 kts | 76° |
| 2026-05-07 04:21 | -43.57792 | 172.42440 | 2213 ft | 197 kts | 57° |
| 2026-05-07 04:21 | -43.56943 | 172.43884 | 1981 ft | 192 kts | 39° |
| 2026-05-07 04:22 | -43.55934 | 172.45053 | 1729 ft | 185 kts | 41° |
| 2026-05-07 04:22 | -43.55003 | 172.46135 | 1505 ft | 166 kts | 40° |
| 2026-05-07 04:22 | -43.54171 | 172.47100 | 1293 ft | 150 kts | 41° |
| 2026-05-07 04:22 | -43.53393 | 172.48002 | 1095 ft | 144 kts | 41° |
| 2026-05-07 04:23 | -43.52633 | 172.48883 | 907 ft | 142 kts | 41° |
| 2026-05-07 04:23 | -43.52168 | 172.49423 | 792 ft | 142 kts | 41° |
| 2026-05-07 04:23 | -43.51896 | 172.49731 | 729 ft | 140 kts | 39° |
| 2026-05-07 04:24 | -43.51130 | 172.50553 | 557 ft | 139 kts | 44° |
| 2026-05-07 04:24 | -43.50422 | 172.51472 | 365 ft | 142 kts | 44° |
| 2026-05-07 04:24 | -43.49657 | 172.52331 | 172 ft | 142 kts | 40° |
| 2026-05-07 04:24 | -43.48940 | 172.53169 | 112 ft | 117 kts | 39° |
| 2026-05-07 04:25 | -43.48446 | 172.53736 | 109 ft | 68 kts | 40° |
| 2026-05-07 04:25 | -43.48187 | 172.54035 | 108 ft | 35 kts | 40° |
| 2026-05-07 04:25 | -43.48108 | 172.54183 | 110 ft | 14 kts | 114° |
| 2026-05-07 04:25 | -43.48183 | 172.54231 | 109 ft | 6 kts | 167° |
| 2026-05-07 04:26 | -43.48241 | 172.54249 | 106 ft | 10 kts | 168° |
| 2026-05-07 04:26 | -43.48296 | 172.54252 | 108 ft | 8 kts | 211° |
| 2026-05-07 04:26 | -43.48346 | 172.54196 | 107 ft | 10 kts | 219° |
| 2026-05-07 04:26 | -43.48405 | 172.54129 | 107 ft | 11 kts | 220° |
| 2026-05-07 04:27 | -43.48467 | 172.54054 | 107 ft | 13 kts | 222° |
| 2026-05-07 04:27 | -43.48531 | 172.53964 | 109 ft | 13 kts | 221° |
| 2026-05-07 04:27 | -43.48598 | 172.53887 | 109 ft | 12 kts | 220° |
| 2026-05-07 04:27 | -43.48664 | 172.53810 | 108 ft | 12 kts | 220° |
| 2026-05-07 04:28 | -43.48729 | 172.53735 | 109 ft | 12 kts | 220° |
| 2026-05-07 04:28 | -43.48782 | 172.53675 | 109 ft | 7 kts | 212° |
| 2026-05-07 04:28 | -43.48821 | 172.53708 | 109 ft | 8 kts | 125° |
| 2026-05-07 04:28 | -43.48854 | 172.53762 | 109 ft | 2 kts | 130° |
| 2026-05-07 04:29 | -43.48864 | 172.53779 | 108 ft | 0 kts | 129° |
| 2026-05-07 04:29 | -43.48867 | 172.53784 | 109 ft | 0 kts | 130° |